createdAt,value
2022-11-15T00:01:18.010Z,26.40
2022-11-15T00:03:45.456Z,27.80
2022-11-15T00:06:12.583Z,28.00
2022-11-15T00:08:39.525Z,25.77
2022-11-15T00:11:06.573Z,26.10
2022-11-15T00:13:34.074Z,27.03
2022-11-15T00:16:02.599Z,26.43
2022-11-15T00:18:31.196Z,25.50
2022-11-15T00:21:10.335Z,26.93
2022-11-15T00:23:37.480Z,26.33
2022-11-15T00:26:04.822Z,30.50
2022-11-15T00:28:31.996Z,29.40
2022-11-15T00:31:08.234Z,28.80
2022-11-15T00:33:35.348Z,27.43
2022-11-15T00:36:05.830Z,29.07
2022-11-15T00:38:34.825Z,27.37
2022-11-15T00:41:07.947Z,28.67
2022-11-15T00:43:36.575Z,28.57
2022-11-15T00:46:03.884Z,31.03
2022-11-15T00:48:31.279Z,30.77
2022-11-15T00:50:59.054Z,32.97
2022-11-15T00:53:26.274Z,32.83
2022-11-15T00:55:53.517Z,30.93
2022-11-15T00:58:20.708Z,31.33
2022-11-15T01:00:47.914Z,30.57
2022-11-15T01:03:15.108Z,38.80
2022-11-15T01:05:42.223Z,33.70
2022-11-15T01:08:15.556Z,34.27
2022-11-15T01:10:42.762Z,36.27
2022-11-15T01:13:09.951Z,34.77
2022-11-15T01:15:41.553Z,36.30
2022-11-15T01:18:09.004Z,34.87
2022-11-15T01:20:40.262Z,36.43
2022-11-15T01:23:07.363Z,40.80
2022-11-15T01:25:34.408Z,35.73
2022-11-15T01:28:01.471Z,40.30
2022-11-15T01:30:28.546Z,36.60
2022-11-15T01:32:55.588Z,42.03
2022-11-15T01:35:22.620Z,42.67
2022-11-15T01:37:49.611Z,41.77
2022-11-15T01:40:16.725Z,46.93
2022-11-15T01:42:43.757Z,41.03
2022-11-15T01:45:17.596Z,41.63
2022-11-15T01:47:52.677Z,46.00
2022-11-15T01:50:26.069Z,48.90
2022-11-15T01:52:53.304Z,45.87
2022-11-15T01:55:26.473Z,44.70
2022-11-15T01:58:01.023Z,43.73
2022-11-15T02:00:29.809Z,44.83
2022-11-15T02:02:57.212Z,44.47
2022-11-15T02:05:24.386Z,46.37
2022-11-15T02:07:52.329Z,43.87
2022-11-15T02:10:23.560Z,39.87
2022-11-15T02:12:51.920Z,40.47
2022-11-15T02:15:19.344Z,44.27
2022-11-15T02:18:22.438Z,39.87
2022-11-15T02:21:37.065Z,37.30
2022-11-15T02:24:23.356Z,44.10
2022-11-15T02:27:31.547Z,45.67
2022-11-15T02:30:42.140Z,40.10
2022-11-15T02:33:51.351Z,45.27
2022-11-15T02:36:43.206Z,43.37
2022-11-15T02:39:45.662Z,44.30
2022-11-15T02:42:45.506Z,41.07
2022-11-15T02:45:22.620Z,42.27
2022-11-15T02:47:53.491Z,43.87
2022-11-15T02:50:25.571Z,43.80
2022-11-15T02:52:52.894Z,41.70
2022-11-15T02:55:34.474Z,43.13
2022-11-15T02:58:47.160Z,47.23
2022-11-15T03:01:39.162Z,47.20
2022-11-15T03:04:56.732Z,48.17
2022-11-15T03:07:47.252Z,51.57
2022-11-15T03:10:47.087Z,46.50
2022-11-15T03:13:37.740Z,51.03
2022-11-15T03:16:16.245Z,53.10
2022-11-15T03:18:49.231Z,53.40
2022-11-15T03:21:19.933Z,49.70
2022-11-15T03:23:49.898Z,52.70
2022-11-15T03:26:19.723Z,49.83
2022-11-15T03:29:15.532Z,50.60
2022-11-15T03:31:50.724Z,54.07
2022-11-15T03:34:28.664Z,49.73
2022-11-15T03:36:55.999Z,50.60
2022-11-15T03:39:24.469Z,52.63
2022-11-15T03:42:26.395Z,51.07
2022-11-15T03:45:04.440Z,52.10
2022-11-15T03:47:53.092Z,51.73
2022-11-15T03:50:23.276Z,49.67
2022-11-15T03:52:51.084Z,47.63
2022-11-15T03:55:22.524Z,54.67
2022-11-15T03:57:59.224Z,53.37
2022-11-15T04:00:26.642Z,50.83
2022-11-15T04:02:53.733Z,55.23
2022-11-15T04:05:20.815Z,55.63
2022-11-15T04:07:47.810Z,49.73
2022-11-15T04:10:15.704Z,53.20
2022-11-15T04:12:50.423Z,52.00
2022-11-15T04:15:23.708Z,51.87
2022-11-15T04:17:54.628Z,56.20
2022-11-15T04:20:42.420Z,56.17
2022-11-15T04:23:35.038Z,62.20
2022-11-15T04:26:13.848Z,60.10
2022-11-15T04:29:00.975Z,56.20
2022-11-15T04:31:29.205Z,54.43
2022-11-15T04:33:57.032Z,51.17
2022-11-15T04:36:43.519Z,60.97
2022-11-15T04:39:10.575Z,52.53
2022-11-15T04:41:37.811Z,53.97
2022-11-15T04:44:04.922Z,57.00
2022-11-15T04:46:32.361Z,52.07
2022-11-15T04:48:59.618Z,55.13
2022-11-15T04:51:27.806Z,52.27
2022-11-15T04:53:54.906Z,58.57
2022-11-15T04:56:21.948Z,50.50
2022-11-15T04:58:51.912Z,55.83
2022-11-15T05:01:19.292Z,51.13
2022-11-15T05:04:05.532Z,52.27
2022-11-15T05:06:32.845Z,54.67
2022-11-15T05:09:00.197Z,50.70
2022-11-15T05:11:28.472Z,55.93
2022-11-15T05:13:56.221Z,56.53
2022-11-15T05:16:23.562Z,59.97
2022-11-15T05:18:55.004Z,53.83
2022-11-15T05:21:22.955Z,50.07
2022-11-15T05:23:50.337Z,46.70
2022-11-15T05:26:19.101Z,57.60
2022-11-15T05:28:46.236Z,54.23
2022-11-15T05:31:16.673Z,48.80
2022-11-15T05:33:45.434Z,45.30
2022-11-15T05:36:42.068Z,53.07
2022-11-15T05:39:10.147Z,51.10
2022-11-15T05:41:49.337Z,53.23
2022-11-15T05:44:22.285Z,50.07
2022-11-15T05:46:50.487Z,53.07
2022-11-15T05:49:23.280Z,53.27
2022-11-15T05:51:50.900Z,51.53
2022-11-15T05:54:20.652Z,46.03
2022-11-15T05:56:47.893Z,54.03
2022-11-15T05:59:15.087Z,51.00
2022-11-15T06:01:42.366Z,51.57
2022-11-15T06:04:09.628Z,52.93
2022-11-15T06:06:36.785Z,50.63
2022-11-15T06:09:04.098Z,46.97
2022-11-15T06:11:31.160Z,46.93
2022-11-15T06:13:58.209Z,48.00
2022-11-15T06:16:25.313Z,49.70
2022-11-15T06:18:52.304Z,45.67
2022-11-15T06:21:19.326Z,45.30
2022-11-15T06:23:46.327Z,52.73
2022-11-15T06:26:13.416Z,45.40
2022-11-15T06:28:40.388Z,46.30
2022-11-15T06:31:11.995Z,46.60
2022-11-15T06:33:40.607Z,44.27
2022-11-15T06:36:17.525Z,48.17
2022-11-15T06:38:45.943Z,45.83
2022-11-15T06:41:15.068Z,48.63
2022-11-15T06:43:42.722Z,45.40
2022-11-15T06:46:09.946Z,50.33
2022-11-15T06:48:37.413Z,46.33
2022-11-15T06:51:05.832Z,51.20
2022-11-15T06:53:33.914Z,50.33
2022-11-15T06:56:07.575Z,50.63
2022-11-15T06:58:36.109Z,51.83
2022-11-15T07:01:10.400Z,54.83
2022-11-15T07:03:40.918Z,54.47
2022-11-15T07:06:09.283Z,50.07
2022-11-15T07:08:37.033Z,47.90
2022-11-15T07:11:07.787Z,44.27
2022-11-15T07:13:37.038Z,45.27
2022-11-15T07:16:11.244Z,43.80
2022-11-15T07:18:40.508Z,51.00
2022-11-15T07:21:11.613Z,50.23
2022-11-15T07:23:39.930Z,40.43
2022-11-15T07:26:08.057Z,37.93
2022-11-15T07:28:35.958Z,39.90
2022-11-15T07:31:05.613Z,39.33
2022-11-15T07:33:32.836Z,43.07
2022-11-15T07:36:06.103Z,38.63
2022-11-15T07:38:39.391Z,37.50
2022-11-15T07:41:09.414Z,41.10
2022-11-15T07:43:36.530Z,40.63
2022-11-15T07:46:10.277Z,41.20
2022-11-15T07:48:44.552Z,45.47
2022-11-15T07:51:15.325Z,42.57
2022-11-15T07:53:45.749Z,39.60
2022-11-15T07:56:13.274Z,40.97
2022-11-15T07:58:40.380Z,44.43
2022-11-15T08:01:10.023Z,42.53
2022-11-15T08:03:38.076Z,36.67
2022-11-15T08:06:05.648Z,44.30
2022-11-15T08:08:32.743Z,37.70
2022-11-15T08:11:00.327Z,38.70
2022-11-15T08:13:27.403Z,38.80
2022-11-15T08:16:03.064Z,40.63
2022-11-15T08:18:30.105Z,43.13
2022-11-15T08:21:01.521Z,39.10
2022-11-15T08:23:29.292Z,38.00
2022-11-15T08:26:04.252Z,44.63
2022-11-15T08:28:32.503Z,40.33
2022-11-15T08:30:59.516Z,47.40
2022-11-15T08:33:26.525Z,36.63
2022-11-15T08:35:53.563Z,51.83
2022-11-15T08:38:20.544Z,36.03
2022-11-15T08:40:47.617Z,41.07
2022-11-15T08:43:14.582Z,40.37
2022-11-15T08:45:41.514Z,37.77
2022-11-15T08:48:08.507Z,35.67
2022-11-15T08:50:35.674Z,40.70
2022-11-15T08:53:09.363Z,35.73
2022-11-15T08:55:40.716Z,41.57
2022-11-15T08:58:08.004Z,40.67
2022-11-15T09:00:35.090Z,42.07
2022-11-15T09:03:06.796Z,39.10
2022-11-15T09:05:38.734Z,44.40
2022-11-15T09:08:19.007Z,39.20
2022-11-15T09:10:53.303Z,37.07
2022-11-15T09:13:20.314Z,37.90
2022-11-15T09:15:47.408Z,39.27
2022-11-15T09:18:14.478Z,39.47
2022-11-15T09:20:41.431Z,39.40
2022-11-15T09:23:08.498Z,42.43
2022-11-15T09:25:35.511Z,36.30
2022-11-15T09:28:06.558Z,39.80
2022-11-15T09:30:33.525Z,41.00
2022-11-15T09:33:06.885Z,32.63
2022-11-15T09:35:33.862Z,40.27
2022-11-15T09:38:00.887Z,39.97
2022-11-15T09:40:28.746Z,43.07
2022-11-15T09:43:17.220Z,43.43
2022-11-15T09:46:29.844Z,40.00
2022-11-15T09:49:05.219Z,40.33
2022-11-15T09:51:48.556Z,45.57
2022-11-15T09:54:53.860Z,43.43
2022-11-15T09:57:55.402Z,44.67
2022-11-15T10:00:51.213Z,41.53
2022-11-15T10:03:29.903Z,39.03
2022-11-15T10:06:03.707Z,49.10
2022-11-15T10:09:24.056Z,40.33
2022-11-15T10:11:51.555Z,44.97
2022-11-15T10:14:24.653Z,44.93
2022-11-15T10:17:25.139Z,43.77
2022-11-15T10:20:14.427Z,42.07
2022-11-15T10:22:52.650Z,43.70
2022-11-15T10:25:33.409Z,43.20
2022-11-15T10:28:31.430Z,46.93
2022-11-15T10:31:05.305Z,42.00
2022-11-15T10:33:40.220Z,42.17
2022-11-15T10:36:10.020Z,47.33
2022-11-15T10:38:55.106Z,42.90
2022-11-15T10:41:30.818Z,45.97
2022-11-15T10:44:32.218Z,41.47
2022-11-15T10:46:59.169Z,45.33
2022-11-15T10:49:31.718Z,42.30
2022-11-15T10:52:12.410Z,42.33
2022-11-15T10:54:46.537Z,48.27
2022-11-15T10:57:53.484Z,51.33
2022-11-15T11:00:20.274Z,47.10
2022-11-15T11:02:57.937Z,45.97
2022-11-15T11:05:41.663Z,46.57
2022-11-15T11:08:12.328Z,45.77
2022-11-15T11:11:00.193Z,46.70
2022-11-15T11:13:30.223Z,46.20
2022-11-15T11:16:14.951Z,46.20
2022-11-15T11:19:19.410Z,45.57
2022-11-15T11:22:27.070Z,48.60
2022-11-15T11:25:14.951Z,46.67
2022-11-15T11:27:56.509Z,41.57
2022-11-15T11:30:53.707Z,48.00
2022-11-15T11:33:33.549Z,43.73
2022-11-15T11:36:16.241Z,46.20
2022-11-15T11:39:11.623Z,45.07
2022-11-15T11:42:14.965Z,52.77
2022-11-15T11:45:09.222Z,52.30
2022-11-15T11:47:52.268Z,50.00
2022-11-15T11:50:23.603Z,53.47
2022-11-15T11:53:16.303Z,51.80
2022-11-15T11:55:53.937Z,48.90
2022-11-15T11:58:35.218Z,52.40
2022-11-15T12:01:31.828Z,56.07
2022-11-15T12:04:12.640Z,58.40
2022-11-15T12:06:54.560Z,44.93
2022-11-15T12:09:39.301Z,48.10
2022-11-15T12:12:12.657Z,54.50
2022-11-15T12:15:04.606Z,47.20
2022-11-15T12:17:33.179Z,53.10
2022-11-15T12:20:21.092Z,52.93
2022-11-15T12:23:13.635Z,51.47
2022-11-15T12:25:46.663Z,47.57
2022-11-15T12:28:29.451Z,50.07
2022-11-15T12:31:26.950Z,53.23
2022-11-15T12:34:01.778Z,59.33
2022-11-15T12:36:45.287Z,53.27
2022-11-15T12:39:14.555Z,48.90
2022-11-15T12:42:05.912Z,50.00
2022-11-15T12:44:32.815Z,51.53
2022-11-15T12:47:09.594Z,51.60
2022-11-15T12:49:36.463Z,49.10
2022-11-15T12:52:03.306Z,48.27
2022-11-15T12:54:42.248Z,53.37
2022-11-15T12:57:09.160Z,53.40
2022-11-15T12:59:59.583Z,51.90
2022-11-15T13:02:38.884Z,52.70
2022-11-15T13:05:37.711Z,53.53
2022-11-15T13:08:04.747Z,48.97
2022-11-15T13:10:34.863Z,51.77
2022-11-15T13:13:09.985Z,56.93
2022-11-15T13:15:52.711Z,50.97
2022-11-15T13:18:41.632Z,50.80
2022-11-15T13:21:44.202Z,50.33
2022-11-15T13:24:16.899Z,50.60
2022-11-15T13:26:44.381Z,48.50
2022-11-15T13:29:19.763Z,56.10
2022-11-15T13:31:47.949Z,59.43
2022-11-15T13:34:51.128Z,60.43
2022-11-15T13:37:21.759Z,52.67
2022-11-15T13:39:50.187Z,55.63
2022-11-15T13:42:19.945Z,47.27
2022-11-15T13:45:05.505Z,50.30
2022-11-15T13:47:32.805Z,52.90
2022-11-15T13:50:02.185Z,47.20
2022-11-15T13:52:38.045Z,48.23
2022-11-15T13:55:21.408Z,49.03
2022-11-15T13:58:07.623Z,50.87
2022-11-15T14:00:36.930Z,47.60
2022-11-15T14:03:53.357Z,47.17
2022-11-15T14:06:24.105Z,49.23
2022-11-15T14:09:12.310Z,51.83
2022-11-15T14:11:54.487Z,47.43
2022-11-15T14:14:24.432Z,51.60
2022-11-15T14:16:59.048Z,59.63
2022-11-15T14:19:25.881Z,50.73
2022-11-15T14:22:17.346Z,55.30
2022-11-15T14:24:47.523Z,55.83
2022-11-15T14:27:26.409Z,56.43
2022-11-15T14:29:54.698Z,45.30
2022-11-15T14:32:28.835Z,46.83
2022-11-15T14:35:01.382Z,44.03
2022-11-15T14:37:35.912Z,47.27
2022-11-15T14:40:06.079Z,45.63
2022-11-15T14:42:33.769Z,49.70
2022-11-15T14:45:00.753Z,50.27
2022-11-15T14:47:27.766Z,46.90
2022-11-15T14:49:54.742Z,48.63
2022-11-15T14:52:36.633Z,53.73
2022-11-15T14:55:16.769Z,50.00
2022-11-15T14:57:43.833Z,55.20
2022-11-15T15:00:11.483Z,53.43
2022-11-15T15:02:38.717Z,49.57
2022-11-15T15:05:36.244Z,53.73
2022-11-15T15:08:04.037Z,51.40
2022-11-15T15:10:44.288Z,54.87
2022-11-15T15:13:25.534Z,57.77
2022-11-15T15:15:53.207Z,55.80
2022-11-15T15:18:21.204Z,51.20
2022-11-15T15:20:57.751Z,55.87
2022-11-15T15:23:26.644Z,48.97
2022-11-15T15:25:54.180Z,52.00
2022-11-15T15:28:21.383Z,57.97
2022-11-15T15:30:48.407Z,53.10
2022-11-15T15:33:15.392Z,65.33
2022-11-15T15:35:43.040Z,67.17
2022-11-15T15:38:13.785Z,60.23
2022-11-15T15:40:40.930Z,56.10
2022-11-15T15:43:10.141Z,63.70
2022-11-15T15:45:42.264Z,59.37
2022-11-15T15:48:14.912Z,62.17
2022-11-15T15:50:43.999Z,55.43
2022-11-15T15:53:12.583Z,68.27
2022-11-15T15:55:40.069Z,59.73
2022-11-15T15:58:07.679Z,57.17
2022-11-15T16:00:34.788Z,62.63
2022-11-15T16:03:01.804Z,56.87
2022-11-15T16:05:28.825Z,59.53
2022-11-15T16:07:55.995Z,67.37
2022-11-15T16:10:30.323Z,60.67
2022-11-15T16:12:59.276Z,64.90
2022-11-15T16:15:30.607Z,65.67
2022-11-15T16:18:01.736Z,62.23
2022-11-15T16:20:46.912Z,60.37
2022-11-15T16:23:16.747Z,58.00
2022-11-15T16:25:58.879Z,66.13
2022-11-15T16:28:32.498Z,60.97
2022-11-15T16:31:06.826Z,64.77
2022-11-15T16:33:35.865Z,59.43
2022-11-15T16:36:05.546Z,59.13
2022-11-15T16:38:33.140Z,55.70
2022-11-15T16:41:00.351Z,57.03
2022-11-15T16:43:27.347Z,53.47
2022-11-15T16:45:55.551Z,58.77
2022-11-15T16:48:26.964Z,56.10
2022-11-15T16:50:59.328Z,54.43
2022-11-15T16:53:27.889Z,62.33
2022-11-15T16:55:58.075Z,60.47
2022-11-15T16:58:25.178Z,57.70
2022-11-15T17:00:54.091Z,61.17
2022-11-15T17:03:25.354Z,61.23
2022-11-15T17:05:52.890Z,60.17
2022-11-15T17:08:22.076Z,65.60
2022-11-15T17:10:49.453Z,60.17
2022-11-15T17:13:16.417Z,54.67
2022-11-15T17:15:44.176Z,54.00
2022-11-15T17:18:15.802Z,53.17
2022-11-15T17:20:43.938Z,49.83
2022-11-15T17:23:14.826Z,49.33
2022-11-15T17:25:42.136Z,54.40
2022-11-15T17:28:09.485Z,53.73
2022-11-15T17:30:36.548Z,51.47
2022-11-15T17:33:03.690Z,52.33
2022-11-15T17:35:30.764Z,40.70
2022-11-15T17:37:57.915Z,41.70
2022-11-15T17:40:24.902Z,41.00
2022-11-15T17:42:51.845Z,44.67
2022-11-15T17:45:18.814Z,45.23
2022-11-15T17:47:45.761Z,41.47
2022-11-15T17:50:12.720Z,39.87
2022-11-15T17:52:39.725Z,48.40
2022-11-15T17:55:07.239Z,47.00
2022-11-15T17:57:34.146Z,41.07
2022-11-15T18:00:01.130Z,41.83
2022-11-15T18:02:28.112Z,41.20
2022-11-15T18:04:55.005Z,42.37
2022-11-15T18:07:22.067Z,41.77
2022-11-15T18:09:49.188Z,40.43
2022-11-15T18:12:16.192Z,48.90
2022-11-15T18:14:43.182Z,38.03
2022-11-15T18:17:10.163Z,36.90
2022-11-15T18:19:37.738Z,37.27
2022-11-15T18:22:07.265Z,39.17
2022-11-15T18:24:38.467Z,30.03
2022-11-15T18:27:08.273Z,35.70
2022-11-15T18:29:37.875Z,34.40
2022-11-15T18:32:11.769Z,36.03
2022-11-15T18:34:38.982Z,36.93
2022-11-15T18:37:06.235Z,35.30
2022-11-15T18:39:33.356Z,36.00
2022-11-15T18:42:00.560Z,37.83
2022-11-15T18:44:30.210Z,43.13
2022-11-15T18:46:58.152Z,39.00
2022-11-15T18:49:25.669Z,36.15
2022-11-15T18:51:52.664Z,32.23
2022-11-15T18:54:19.647Z,32.33
2022-11-15T18:56:47.209Z,31.23
2022-11-15T18:59:15.429Z,29.90
2022-11-15T19:01:48.758Z,29.70
2022-11-15T19:04:20.856Z,39.27
2022-11-15T19:06:50.111Z,32.63
2022-11-15T19:09:19.407Z,32.23
2022-11-15T19:11:48.859Z,32.83
2022-11-15T19:14:17.897Z,33.47
2022-11-15T19:16:52.419Z,39.40
2022-11-15T19:19:24.529Z,33.27
2022-11-15T19:21:52.903Z,31.30
2022-11-15T19:24:20.037Z,40.57
2022-11-15T19:26:47.430Z,34.97
2022-11-15T19:29:14.603Z,39.73
2022-11-15T19:31:42.354Z,33.57
2022-11-15T19:34:09.488Z,33.13
2022-11-15T19:36:40.369Z,31.47
2022-11-15T19:39:12.706Z,33.07
2022-11-15T19:41:42.608Z,35.47
2022-11-15T19:44:12.645Z,36.70
2022-11-15T19:46:41.169Z,29.03
2022-11-15T19:49:11.401Z,27.43
2022-11-15T19:51:41.681Z,28.43
2022-11-15T19:54:10.461Z,31.10
2022-11-15T19:56:39.669Z,30.20
2022-11-15T19:59:07.043Z,24.20
2022-11-15T20:01:38.061Z,27.70
2022-11-15T20:04:07.717Z,25.10
2022-11-15T20:06:41.957Z,25.00
2022-11-15T20:09:14.012Z,26.57
2022-11-15T20:11:41.055Z,27.07
2022-11-15T20:14:09.661Z,26.77
2022-11-15T20:16:36.771Z,30.43
2022-11-15T20:19:04.252Z,27.00
2022-11-15T20:21:31.365Z,26.87
2022-11-15T20:23:58.385Z,29.50
2022-11-15T20:26:25.638Z,29.77
2022-11-15T20:28:52.704Z,30.37
2022-11-15T20:31:19.907Z,26.37
2022-11-15T20:33:47.176Z,30.43
2022-11-15T20:36:16.043Z,28.63
2022-11-15T20:38:44.859Z,25.83
2022-11-15T20:41:15.049Z,28.03
2022-11-15T20:43:43.814Z,29.43
2022-11-15T20:46:12.540Z,23.57
2022-11-15T20:48:40.326Z,29.83
2022-11-15T20:51:16.486Z,25.97
2022-11-15T20:53:45.098Z,25.20
2022-11-15T20:56:17.024Z,23.90
2022-11-15T20:58:45.912Z,25.77
2022-11-15T21:01:15.718Z,23.53
2022-11-15T21:03:42.940Z,24.77
2022-11-15T21:06:11.414Z,26.07
2022-11-15T21:08:57.562Z,29.50
2022-11-15T21:11:43.808Z,26.80
2022-11-15T21:14:10.840Z,23.77
2022-11-15T21:16:39.127Z,27.37
2022-11-15T21:19:06.927Z,27.03
2022-11-15T21:21:36.240Z,22.70
2022-11-15T21:24:09.444Z,26.37
2022-11-15T21:26:37.617Z,20.40
2022-11-15T21:29:04.886Z,24.30
2022-11-15T21:31:32.210Z,22.03
2022-11-15T21:34:02.751Z,21.50
2022-11-15T21:36:30.460Z,18.97
2022-11-15T21:38:57.555Z,21.13
2022-11-15T21:41:24.613Z,17.63
2022-11-15T21:43:51.621Z,25.30
2022-11-15T21:46:18.708Z,20.77
2022-11-15T21:48:45.805Z,24.67
2022-11-15T21:51:13.090Z,24.17
2022-11-15T21:53:40.553Z,23.77
2022-11-15T21:56:08.092Z,23.27
2022-11-15T21:58:35.731Z,25.43
2022-11-15T22:01:21.664Z,22.47
2022-11-15T22:03:48.824Z,21.93
2022-11-15T22:06:18.113Z,25.60
2022-11-15T22:08:46.417Z,20.10
2022-11-15T22:11:14.868Z,22.80
2022-11-15T22:13:42.415Z,24.03
2022-11-15T22:16:10.345Z,21.80
2022-11-15T22:18:38.324Z,24.17
2022-11-15T22:21:13.567Z,26.40
2022-11-15T22:23:41.618Z,26.63
2022-11-15T22:26:13.026Z,27.50
2022-11-15T22:28:40.320Z,21.27
2022-11-15T22:31:07.784Z,25.23
2022-11-15T22:33:36.051Z,25.13
2022-11-15T22:36:05.184Z,29.10
2022-11-15T22:38:33.039Z,27.80
2022-11-15T22:41:00.449Z,24.83
2022-11-15T22:43:28.190Z,30.57
2022-11-15T22:45:58.285Z,25.53
2022-11-15T22:48:37.890Z,27.37
2022-11-15T22:51:06.042Z,27.27
2022-11-15T22:53:33.177Z,26.67
2022-11-15T22:56:03.089Z,28.03
2022-11-15T22:58:32.816Z,34.07
2022-11-15T23:01:03.120Z,32.90
2022-11-15T23:03:31.193Z,30.07
2022-11-15T23:06:04.813Z,36.10
2022-11-15T23:08:32.198Z,35.63
2022-11-15T23:11:21.962Z,32.33
2022-11-15T23:13:52.207Z,33.70
2022-11-15T23:16:23.611Z,33.77
2022-11-15T23:18:54.577Z,36.30
2022-11-15T23:21:43.863Z,30.77
2022-11-15T23:24:13.045Z,36.30
2022-11-15T23:26:41.588Z,31.53
2022-11-15T23:29:11.850Z,35.23
2022-11-15T23:32:01.938Z,41.57
2022-11-15T23:34:31.289Z,35.07
2022-11-15T23:36:59.012Z,37.37
2022-11-15T23:39:26.263Z,33.77
2022-11-15T23:41:53.361Z,38.10
2022-11-15T23:44:20.436Z,32.30
2022-11-15T23:46:47.504Z,35.33
2022-11-15T23:49:14.639Z,31.57
2022-11-15T23:51:41.768Z,31.03
2022-11-15T23:54:09.447Z,34.73
2022-11-15T23:56:36.614Z,31.33
2022-11-15T23:59:04.597Z,30.93
